sensor_id;sensor_type;location;lat;lon;timestamp;pressure;altitude;pressure_sealevel;temperature;humidity
67373;BME280;54257;54.496;18.412;2023-02-19T00:00:37;98948.61;;;2.80;88.38
67373;BME280;54257;54.496;18.412;2023-02-19T00:03:26;98946.00;;;2.84;88.19
67373;BME280;54257;54.496;18.412;2023-02-19T00:05:54;98951.33;;;2.87;88.22
67373;BME280;54257;54.496;18.412;2023-02-19T00:08:24;98948.39;;;2.90;87.90
67373;BME280;54257;54.496;18.412;2023-02-19T00:10:51;98950.52;;;2.93;87.91
67373;BME280;54257;54.496;18.412;2023-02-19T00:13:19;98952.60;;;2.95;87.83
67373;BME280;54257;54.496;18.412;2023-02-19T00:15:46;98957.58;;;2.98;87.77
67373;BME280;54257;54.496;18.412;2023-02-19T00:18:14;98956.57;;;2.98;87.63
67373;BME280;54257;54.496;18.412;2023-02-19T00:20:41;98955.79;;;3.00;87.67
67373;BME280;54257;54.496;18.412;2023-02-19T00:23:08;98958.05;;;3.02;87.49
67373;BME280;54257;54.496;18.412;2023-02-19T00:25:38;98959.90;;;3.02;87.41
67373;BME280;54257;54.496;18.412;2023-02-19T00:28:07;98955.46;;;3.00;87.35
67373;BME280;54257;54.496;18.412;2023-02-19T00:30:34;98951.39;;;3.00;87.44
67373;BME280;54257;54.496;18.412;2023-02-19T00:33:01;98952.59;;;3.01;87.24
67373;BME280;54257;54.496;18.412;2023-02-19T00:35:28;98950.08;;;3.00;87.18
67373;BME280;54257;54.496;18.412;2023-02-19T00:37:55;98949.69;;;3.00;87.09
67373;BME280;54257;54.496;18.412;2023-02-19T00:40:23;98952.19;;;2.98;87.02
67373;BME280;54257;54.496;18.412;2023-02-19T00:42:52;98955.71;;;2.98;87.03
67373;BME280;54257;54.496;18.412;2023-02-19T00:45:19;98949.80;;;2.98;86.92
67373;BME280;54257;54.496;18.412;2023-02-19T00:47:46;98959.75;;;2.97;86.83
67373;BME280;54257;54.496;18.412;2023-02-19T00:50:13;98960.95;;;2.98;86.84
67373;BME280;54257;54.496;18.412;2023-02-19T00:52:41;98961.60;;;2.97;86.77
67373;BME280;54257;54.496;18.412;2023-02-19T00:55:08;98966.34;;;2.98;86.90
67373;BME280;54257;54.496;18.412;2023-02-19T00:57:35;98968.38;;;2.98;86.72
67373;BME280;54257;54.496;18.412;2023-02-19T01:00:03;98966.50;;;2.97;86.86
67373;BME280;54257;54.496;18.412;2023-02-19T01:02:32;98975.24;;;2.97;86.72
67373;BME280;54257;54.496;18.412;2023-02-19T01:04:59;98971.81;;;2.94;86.67
67373;BME280;54257;54.496;18.412;2023-02-19T01:07:26;98969.05;;;2.92;86.60
67373;BME280;54257;54.496;18.412;2023-02-19T01:09:53;98965.06;;;2.89;86.62
67373;BME280;54257;54.496;18.412;2023-02-19T01:12:21;98961.33;;;2.88;86.63
67373;BME280;54257;54.496;18.412;2023-02-19T01:14:50;98957.93;;;2.87;86.73
67373;BME280;54257;54.496;18.412;2023-02-19T01:17:17;98951.55;;;2.88;86.79
67373;BME280;54257;54.496;18.412;2023-02-19T01:19:44;98945.88;;;2.91;86.80
67373;BME280;54257;54.496;18.412;2023-02-19T01:22:13;98946.99;;;2.93;86.72
67373;BME280;54257;54.496;18.412;2023-02-19T01:24:40;98948.77;;;2.96;86.93
67373;BME280;54257;54.496;18.412;2023-02-19T01:27:07;98956.77;;;2.99;86.87
67373;BME280;54257;54.496;18.412;2023-02-19T01:29:34;98963.11;;;3.02;86.71
67373;BME280;54257;54.496;18.412;2023-02-19T01:32:03;98968.56;;;3.04;86.60
67373;BME280;54257;54.496;18.412;2023-02-19T01:34:30;98968.64;;;3.07;86.80
67373;BME280;54257;54.496;18.412;2023-02-19T01:36:58;98967.97;;;3.07;86.51
67373;BME280;54257;54.496;18.412;2023-02-19T01:39:26;98967.46;;;3.07;86.42
67373;BME280;54257;54.496;18.412;2023-02-19T01:41:53;98965.38;;;3.05;86.13
67373;BME280;54257;54.496;18.412;2023-02-19T01:46:59;98964.32;;;2.98;86.14
67373;BME280;54257;54.496;18.412;2023-02-19T01:49:29;98963.52;;;2.94;86.12
67373;BME280;54257;54.496;18.412;2023-02-19T01:51:58;98960.53;;;2.90;86.13
67373;BME280;54257;54.496;18.412;2023-02-19T01:54:31;98960.25;;;2.86;86.26
67373;BME280;54257;54.496;18.412;2023-02-19T01:57:02;98960.11;;;2.82;86.20
67373;BME280;54257;54.496;18.412;2023-02-19T01:59:32;98956.66;;;2.78;86.43
67373;BME280;54257;54.496;18.412;2023-02-19T02:02:00;98951.86;;;2.77;86.51
67373;BME280;54257;54.496;18.412;2023-02-19T02:04:30;98949.80;;;2.75;86.49
67373;BME280;54257;54.496;18.412;2023-02-19T02:06:59;98946.95;;;2.76;86.55
67373;BME280;54257;54.496;18.412;2023-02-19T02:09:29;98944.48;;;2.78;86.73
67373;BME280;54257;54.496;18.412;2023-02-19T02:12:15;98945.85;;;2.78;86.63
67373;BME280;54257;54.496;18.412;2023-02-19T02:14:45;98940.64;;;2.79;86.58
67373;BME280;54257;54.496;18.412;2023-02-19T02:17:30;98934.27;;;2.80;86.47
67373;BME280;54257;54.496;18.412;2023-02-19T02:30:45;98948.05;;;2.78;86.67
67373;BME280;54257;54.496;18.412;2023-02-19T02:36:00;98943.94;;;2.71;86.63
67373;BME280;54257;54.496;18.412;2023-02-19T02:38:32;98941.83;;;2.68;86.64
67373;BME280;54257;54.496;18.412;2023-02-19T02:41:01;98943.90;;;2.64;86.76
67373;BME280;54257;54.496;18.412;2023-02-19T02:43:28;98937.55;;;2.61;86.74
67373;BME280;54257;54.496;18.412;2023-02-19T02:45:55;98933.59;;;2.58;86.83
67373;BME280;54257;54.496;18.412;2023-02-19T02:51:20;98931.30;;;2.55;87.11
67373;BME280;54257;54.496;18.412;2023-02-19T02:53:53;98932.69;;;2.57;87.07
67373;BME280;54257;54.496;18.412;2023-02-19T02:56:41;98932.57;;;2.58;87.26
67373;BME280;54257;54.496;18.412;2023-02-19T02:59:11;98938.67;;;2.60;87.31
67373;BME280;54257;54.496;18.412;2023-02-19T03:01:48;98940.95;;;2.62;87.34
67373;BME280;54257;54.496;18.412;2023-02-19T03:04:53;98945.92;;;2.64;87.46
67373;BME280;54257;54.496;18.412;2023-02-19T03:10:22;98947.77;;;2.64;87.38
67373;BME280;54257;54.496;18.412;2023-02-19T03:12:53;98947.35;;;2.62;87.41
67373;BME280;54257;54.496;18.412;2023-02-19T03:15:45;98947.08;;;2.59;87.35
67373;BME280;54257;54.496;18.412;2023-02-19T03:18:48;98945.45;;;2.55;87.35
67373;BME280;54257;54.496;18.412;2023-02-19T03:21:38;98939.39;;;2.50;87.77
67373;BME280;54257;54.496;18.412;2023-02-19T03:24:09;98938.67;;;2.43;88.01
67373;BME280;54257;54.496;18.412;2023-02-19T03:26:58;98945.73;;;2.37;87.80
67373;BME280;54257;54.496;18.412;2023-02-19T03:29:34;98945.10;;;2.34;88.09
67373;BME280;54257;54.496;18.412;2023-02-19T03:32:14;98947.36;;;2.30;88.22
67373;BME280;54257;54.496;18.412;2023-02-19T03:34:49;98951.23;;;2.30;88.15
67373;BME280;54257;54.496;18.412;2023-02-19T03:37:21;98954.43;;;2.30;88.37
67373;BME280;54257;54.496;18.412;2023-02-19T03:39:53;98963.09;;;2.32;88.44
67373;BME280;54257;54.496;18.412;2023-02-19T03:42:52;98963.13;;;2.34;88.39
67373;BME280;54257;54.496;18.412;2023-02-19T03:50:47;98973.14;;;2.41;88.54
67373;BME280;54257;54.496;18.412;2023-02-19T03:53:29;98974.65;;;2.41;88.72
67373;BME280;54257;54.496;18.412;2023-02-19T03:56:12;98974.88;;;2.37;88.73
67373;BME280;54257;54.496;18.412;2023-02-19T04:01:53;98975.35;;;2.26;88.97
67373;BME280;54257;54.496;18.412;2023-02-19T04:04:27;98977.09;;;2.22;89.30
67373;BME280;54257;54.496;18.412;2023-02-19T04:06:56;98974.80;;;2.19;89.48
67373;BME280;54257;54.496;18.412;2023-02-19T04:09:32;98974.73;;;2.18;89.49
67373;BME280;54257;54.496;18.412;2023-02-19T04:12:02;98970.64;;;2.16;89.81
67373;BME280;54257;54.496;18.412;2023-02-19T04:15:05;98971.30;;;2.16;89.65
67373;BME280;54257;54.496;18.412;2023-02-19T04:17:46;98971.28;;;2.15;89.90
67373;BME280;54257;54.496;18.412;2023-02-19T04:20:15;98969.64;;;2.17;90.48
67373;BME280;54257;54.496;18.412;2023-02-19T04:22:44;98970.00;;;2.17;90.28
67373;BME280;54257;54.496;18.412;2023-02-19T04:25:11;98964.39;;;2.20;90.37
67373;BME280;54257;54.496;18.412;2023-02-19T04:27:39;98964.48;;;2.24;90.47
67373;BME280;54257;54.496;18.412;2023-02-19T04:30:09;98961.23;;;2.27;90.59
67373;BME280;54257;54.496;18.412;2023-02-19T04:32:37;98962.52;;;2.30;90.41
67373;BME280;54257;54.496;18.412;2023-02-19T04:35:05;98958.05;;;2.33;90.37
67373;BME280;54257;54.496;18.412;2023-02-19T04:37:32;98959.76;;;2.34;90.34
67373;BME280;54257;54.496;18.412;2023-02-19T04:39:59;98961.94;;;2.33;90.28
67373;BME280;54257;54.496;18.412;2023-02-19T04:42:26;98961.86;;;2.31;90.22
67373;BME280;54257;54.496;18.412;2023-02-19T04:44:53;98964.13;;;2.28;90.23
67373;BME280;54257;54.496;18.412;2023-02-19T04:47:20;98960.17;;;2.26;90.08
67373;BME280;54257;54.496;18.412;2023-02-19T04:49:47;98960.58;;;2.23;90.09
67373;BME280;54257;54.496;18.412;2023-02-19T04:52:14;98961.70;;;2.20;90.28
67373;BME280;54257;54.496;18.412;2023-02-19T04:54:41;98962.88;;;2.16;90.54
67373;BME280;54257;54.496;18.412;2023-02-19T04:57:08;98956.26;;;2.14;90.62
67373;BME280;54257;54.496;18.412;2023-02-19T04:59:35;98958.95;;;2.14;90.85
67373;BME280;54257;54.496;18.412;2023-02-19T05:02:02;98955.64;;;2.16;90.93
67373;BME280;54257;54.496;18.412;2023-02-19T05:04:32;98955.28;;;2.20;91.04
67373;BME280;54257;54.496;18.412;2023-02-19T05:07:00;98958.42;;;2.24;91.18
67373;BME280;54257;54.496;18.412;2023-02-19T05:09:27;98960.41;;;2.28;91.15
67373;BME280;54257;54.496;18.412;2023-02-19T05:11:53;98961.55;;;2.31;91.22
67373;BME280;54257;54.496;18.412;2023-02-19T05:14:21;98959.61;;;2.34;90.98
67373;BME280;54257;54.496;18.412;2023-02-19T05:16:48;98958.89;;;2.37;90.93
67373;BME280;54257;54.496;18.412;2023-02-19T05:19:15;98959.44;;;2.39;90.88
67373;BME280;54257;54.496;18.412;2023-02-19T05:21:42;98961.34;;;2.41;90.82
67373;BME280;54257;54.496;18.412;2023-02-19T05:24:09;98959.35;;;2.42;90.78
67373;BME280;54257;54.496;18.412;2023-02-19T05:26:36;98959.30;;;2.40;90.62
67373;BME280;54257;54.496;18.412;2023-02-19T05:29:03;98963.79;;;2.38;90.63
67373;BME280;54257;54.496;18.412;2023-02-19T05:31:31;98967.11;;;2.37;90.54
67373;BME280;54257;54.496;18.412;2023-02-19T05:34:04;98967.70;;;2.34;90.67
67373;BME280;54257;54.496;18.412;2023-02-19T05:36:31;98968.80;;;2.32;90.70
67373;BME280;54257;54.496;18.412;2023-02-19T05:38:58;98970.23;;;2.29;90.85
67373;BME280;54257;54.496;18.412;2023-02-19T05:41:27;98969.48;;;2.27;90.97
67373;BME280;54257;54.496;18.412;2023-02-19T05:43:55;98973.55;;;2.28;91.05
67373;BME280;54257;54.496;18.412;2023-02-19T05:46:25;98974.31;;;2.30;91.13
67373;BME280;54257;54.496;18.412;2023-02-19T05:48:53;98975.07;;;2.33;91.25
67373;BME280;54257;54.496;18.412;2023-02-19T05:51:23;98975.60;;;2.39;91.26
67373;BME280;54257;54.496;18.412;2023-02-19T05:53:50;98974.41;;;2.44;91.22
67373;BME280;54257;54.496;18.412;2023-02-19T05:56:33;98977.57;;;2.47;91.26
67373;BME280;54257;54.496;18.412;2023-02-19T05:59:05;98980.92;;;2.51;91.30
67373;BME280;54257;54.496;18.412;2023-02-19T06:01:37;98979.00;;;2.55;91.26
67373;BME280;54257;54.496;18.412;2023-02-19T06:04:05;98979.91;;;2.58;91.11
67373;BME280;54257;54.496;18.412;2023-02-19T06:06:32;98980.14;;;2.59;91.04
67373;BME280;54257;54.496;18.412;2023-02-19T06:08:59;98985.61;;;2.62;90.92
67373;BME280;54257;54.496;18.412;2023-02-19T06:11:27;98985.29;;;2.62;90.84
67373;BME280;54257;54.496;18.412;2023-02-19T06:13:56;98991.05;;;2.63;90.76
67373;BME280;54257;54.496;18.412;2023-02-19T06:16:26;98992.55;;;2.62;90.78
67373;BME280;54257;54.496;18.412;2023-02-19T06:18:53;98988.95;;;2.60;90.71
67373;BME280;54257;54.496;18.412;2023-02-19T06:21:21;98995.34;;;2.55;90.49
67373;BME280;54257;54.496;18.412;2023-02-19T06:23:47;98999.70;;;2.49;90.67
67373;BME280;54257;54.496;18.412;2023-02-19T06:26:18;99003.33;;;2.46;90.72
67373;BME280;54257;54.496;18.412;2023-02-19T06:28:48;99006.13;;;2.44;90.74
67373;BME280;54257;54.496;18.412;2023-02-19T06:31:16;99006.84;;;2.46;91.00
67373;BME280;54257;54.496;18.412;2023-02-19T06:33:44;99015.77;;;2.46;91.10
67373;BME280;54257;54.496;18.412;2023-02-19T06:36:14;99013.29;;;2.47;90.99
67373;BME280;54257;54.496;18.412;2023-02-19T06:38:43;99019.09;;;2.49;91.10
67373;BME280;54257;54.496;18.412;2023-02-19T06:41:11;99024.73;;;2.51;91.09
67373;BME280;54257;54.496;18.412;2023-02-19T06:43:39;99028.70;;;2.55;91.02
67373;BME280;54257;54.496;18.412;2023-02-19T06:46:06;99031.58;;;2.55;90.93
67373;BME280;54257;54.496;18.412;2023-02-19T06:48:34;99039.02;;;2.61;90.98
67373;BME280;54257;54.496;18.412;2023-02-19T06:51:01;99041.65;;;2.64;90.97
67373;BME280;54257;54.496;18.412;2023-02-19T06:53:29;99042.56;;;2.67;90.77
67373;BME280;54257;54.496;18.412;2023-02-19T06:56:00;99043.36;;;2.70;90.69
67373;BME280;54257;54.496;18.412;2023-02-19T06:58:28;99049.01;;;2.72;90.49
67373;BME280;54257;54.496;18.412;2023-02-19T07:00:56;99049.61;;;2.75;90.33
67373;BME280;54257;54.496;18.412;2023-02-19T07:03:26;99052.74;;;2.78;89.88
67373;BME280;54257;54.496;18.412;2023-02-19T07:05:53;99051.92;;;2.79;89.48
67373;BME280;54257;54.496;18.412;2023-02-19T07:08:20;99049.83;;;2.77;89.38
67373;BME280;54257;54.496;18.412;2023-02-19T07:10:54;99054.66;;;2.80;88.99
67373;BME280;54257;54.496;18.412;2023-02-19T07:13:23;99056.80;;;2.78;88.53
67373;BME280;54257;54.496;18.412;2023-02-19T07:15:51;99057.75;;;2.77;88.81
67373;BME280;54257;54.496;18.412;2023-02-19T07:18:18;99060.30;;;2.77;88.80
67373;BME280;54257;54.496;18.412;2023-02-19T07:20:48;99064.58;;;2.79;89.10
67373;BME280;54257;54.496;18.412;2023-02-19T07:23:15;99065.79;;;2.80;88.99
67373;BME280;54257;54.496;18.412;2023-02-19T07:25:42;99068.69;;;2.81;89.06
67373;BME280;54257;54.496;18.412;2023-02-19T07:28:12;99073.80;;;2.84;89.15
67373;BME280;54257;54.496;18.412;2023-02-19T07:30:39;99079.89;;;2.89;89.45
67373;BME280;54257;54.496;18.412;2023-02-19T07:33:09;99081.64;;;3.01;90.24
67373;BME280;54257;54.496;18.412;2023-02-19T07:35:47;99080.22;;;3.15;89.72
67373;BME280;54257;54.496;18.412;2023-02-19T07:38:18;99083.96;;;3.27;89.35
67373;BME280;54257;54.496;18.412;2023-02-19T07:40:57;99083.61;;;3.42;89.42
67373;BME280;54257;54.496;18.412;2023-02-19T07:43:30;99085.31;;;3.59;89.30
67373;BME280;54257;54.496;18.412;2023-02-19T07:46:02;99089.17;;;3.76;88.59
67373;BME280;54257;54.496;18.412;2023-02-19T07:48:30;99094.01;;;3.91;88.23
67373;BME280;54257;54.496;18.412;2023-02-19T07:50:59;99097.73;;;4.03;87.42
67373;BME280;54257;54.496;18.412;2023-02-19T07:53:26;99093.60;;;4.12;86.71
67373;BME280;54257;54.496;18.412;2023-02-19T07:55:58;99101.79;;;4.27;87.14
67373;BME280;54257;54.496;18.412;2023-02-19T07:58:27;99106.50;;;4.45;87.13
67373;BME280;54257;54.496;18.412;2023-02-19T08:00:54;99108.64;;;4.63;86.34
67373;BME280;54257;54.496;18.412;2023-02-19T08:03:21;99114.26;;;4.70;84.24
67373;BME280;54257;54.496;18.412;2023-02-19T08:05:49;99113.19;;;4.74;83.76
67373;BME280;54257;54.496;18.412;2023-02-19T08:08:19;99119.20;;;4.78;83.14
67373;BME280;54257;54.496;18.412;2023-02-19T08:10:46;99122.03;;;4.76;81.95
67373;BME280;54257;54.496;18.412;2023-02-19T08:13:32;99129.02;;;4.72;81.79
67373;BME280;54257;54.496;18.412;2023-02-19T08:18:32;99133.86;;;4.70;81.36
67373;BME280;54257;54.496;18.412;2023-02-19T08:21:00;99138.50;;;4.65;81.09
67373;BME280;54257;54.496;18.412;2023-02-19T08:23:28;99139.73;;;4.67;81.24
67373;BME280;54257;54.496;18.412;2023-02-19T08:25:59;99141.72;;;4.79;82.16
67373;BME280;54257;54.496;18.412;2023-02-19T08:28:27;99141.27;;;4.94;81.73
67373;BME280;54257;54.496;18.412;2023-02-19T08:31:00;99141.70;;;5.04;81.24
67373;BME280;54257;54.496;18.412;2023-02-19T08:33:28;99145.16;;;5.14;80.50
67373;BME280;54257;54.496;18.412;2023-02-19T08:36:00;99146.11;;;5.19;78.43
67373;BME280;54257;54.496;18.412;2023-02-19T08:38:31;99150.97;;;5.23;78.67
67373;BME280;54257;54.496;18.412;2023-02-19T08:40:58;99155.13;;;5.27;77.58
67373;BME280;54257;54.496;18.412;2023-02-19T08:43:25;99157.41;;;5.29;77.02
67373;BME280;54257;54.496;18.412;2023-02-19T08:45:53;99162.45;;;5.29;76.42
67373;BME280;54257;54.496;18.412;2023-02-19T08:48:21;99166.25;;;5.31;76.14
67373;BME280;54257;54.496;18.412;2023-02-19T08:51:00;99167.36;;;5.43;77.02
67373;BME280;54257;54.496;18.412;2023-02-19T08:53:35;99165.15;;;5.57;75.64
67373;BME280;54257;54.496;18.412;2023-02-19T08:56:08;99168.02;;;5.63;74.73
67373;BME280;54257;54.496;18.412;2023-02-19T08:58:38;99170.80;;;5.67;74.79
67373;BME280;54257;54.496;18.412;2023-02-19T09:01:11;99168.36;;;5.71;74.05
67373;BME280;54257;54.496;18.412;2023-02-19T09:03:39;99170.23;;;5.79;73.55
67373;BME280;54257;54.496;18.412;2023-02-19T09:06:06;99165.62;;;5.84;72.71
67373;BME280;54257;54.496;18.412;2023-02-19T09:08:33;99179.04;;;5.93;72.60
67373;BME280;54257;54.496;18.412;2023-02-19T09:11:01;99178.88;;;6.08;73.31
67373;BME280;54257;54.496;18.412;2023-02-19T09:13:30;99177.89;;;6.17;71.87
67373;BME280;54257;54.496;18.412;2023-02-19T09:15:58;99179.20;;;6.32;73.19
67373;BME280;54257;54.496;18.412;2023-02-19T09:18:26;99183.55;;;6.44;72.36
67373;BME280;54257;54.496;18.412;2023-02-19T09:20:53;99182.30;;;6.50;70.86
67373;BME280;54257;54.496;18.412;2023-02-19T09:23:20;99180.75;;;6.57;71.14
67373;BME280;54257;54.496;18.412;2023-02-19T09:25:47;99180.70;;;6.72;71.57
67373;BME280;54257;54.496;18.412;2023-02-19T09:28:14;99181.24;;;6.92;70.61
67373;BME280;54257;54.496;18.412;2023-02-19T09:30:42;99175.74;;;7.17;70.45
67373;BME280;54257;54.496;18.412;2023-02-19T09:33:09;99169.48;;;7.49;69.37
67373;BME280;54257;54.496;18.412;2023-02-19T09:35:38;99169.19;;;7.74;67.35
67373;BME280;54257;54.496;18.412;2023-02-19T09:38:06;99174.90;;;7.93;65.06
67373;BME280;54257;54.496;18.412;2023-02-19T09:40:37;99178.26;;;8.02;62.60
67373;BME280;54257;54.496;18.412;2023-02-19T09:43:07;99183.09;;;7.83;60.53
67373;BME280;54257;54.496;18.412;2023-02-19T09:45:35;99182.66;;;7.77;62.29
67373;BME280;54257;54.496;18.412;2023-02-19T09:48:04;99184.08;;;7.81;61.61
67373;BME280;54257;54.496;18.412;2023-02-19T09:50:38;99184.94;;;7.94;61.46
67373;BME280;54257;54.496;18.412;2023-02-19T09:53:22;99188.45;;;8.14;61.33
67373;BME280;54257;54.496;18.412;2023-02-19T09:55:52;99188.83;;;8.38;59.55
67373;BME280;54257;54.496;18.412;2023-02-19T09:58:45;99189.51;;;8.39;59.22
67373;BME280;54257;54.496;18.412;2023-02-19T10:01:14;99197.52;;;8.53;58.45
67373;BME280;54257;54.496;18.412;2023-02-19T10:03:47;99201.35;;;8.62;56.46
67373;BME280;54257;54.496;18.412;2023-02-19T10:06:25;99204.81;;;8.65;55.28
67373;BME280;54257;54.496;18.412;2023-02-19T10:09:23;99206.02;;;8.53;54.05
67373;BME280;54257;54.496;18.412;2023-02-19T10:11:57;99206.07;;;8.32;50.92
67373;BME280;54257;54.496;18.412;2023-02-19T10:16:58;99219.11;;;7.93;53.34
67373;BME280;54257;54.496;18.412;2023-02-19T10:19:26;99212.45;;;7.91;53.98
67373;BME280;54257;54.496;18.412;2023-02-19T10:21:54;99221.20;;;7.74;51.33
67373;BME280;54257;54.496;18.412;2023-02-19T10:24:26;99218.98;;;7.52;51.96
67373;BME280;54257;54.496;18.412;2023-02-19T10:26:55;99220.20;;;7.35;52.85
67373;BME280;54257;54.496;18.412;2023-02-19T10:29:23;99218.95;;;7.21;53.36
67373;BME280;54257;54.496;18.412;2023-02-19T10:32:20;99220.95;;;7.10;53.16
67373;BME280;54257;54.496;18.412;2023-02-19T10:35:12;99226.29;;;6.95;52.14
67373;BME280;54257;54.496;18.412;2023-02-19T10:37:45;99227.58;;;7.10;53.52
67373;BME280;54257;54.496;18.412;2023-02-19T10:40:19;99223.95;;;7.44;52.36
67373;BME280;54257;54.496;18.412;2023-02-19T10:42:48;99232.95;;;7.64;51.96
67373;BME280;54257;54.496;18.412;2023-02-19T10:45:54;99239.59;;;7.87;51.21
67373;BME280;54257;54.496;18.412;2023-02-19T10:48:23;99240.41;;;8.07;50.25
67373;BME280;54257;54.496;18.412;2023-02-19T10:50:53;99240.52;;;8.15;49.64
67373;BME280;54257;54.496;18.412;2023-02-19T10:53:47;99240.14;;;8.35;49.47
67373;BME280;54257;54.496;18.412;2023-02-19T10:56:26;99239.96;;;8.73;49.96
67373;BME280;54257;54.496;18.412;2023-02-19T10:59:14;99248.48;;;9.02;49.09
67373;BME280;54257;54.496;18.412;2023-02-19T11:01:58;99250.19;;;9.18;47.25
67373;BME280;54257;54.496;18.412;2023-02-19T11:04:28;99252.44;;;9.38;48.37
67373;BME280;54257;54.496;18.412;2023-02-19T11:07:18;99258.09;;;9.59;47.28
67373;BME280;54257;54.496;18.412;2023-02-19T11:09:49;99254.29;;;9.73;45.49
67373;BME280;54257;54.496;18.412;2023-02-19T11:12:32;99259.04;;;9.71;44.67
67373;BME280;54257;54.496;18.412;2023-02-19T11:15:17;99261.02;;;9.82;46.32
67373;BME280;54257;54.496;18.412;2023-02-19T11:17:58;99259.70;;;9.89;45.67
67373;BME280;54257;54.496;18.412;2023-02-19T11:20:28;99271.86;;;9.55;42.83
67373;BME280;54257;54.496;18.412;2023-02-19T11:23:10;99271.66;;;9.19;45.24
67373;BME280;54257;54.496;18.412;2023-02-19T11:25:45;99280.23;;;8.80;44.55
67373;BME280;54257;54.496;18.412;2023-02-19T11:28:25;99279.03;;;8.41;44.61
67373;BME280;54257;54.496;18.412;2023-02-19T11:31:32;99286.79;;;8.04;46.40
67373;BME280;54257;54.496;18.412;2023-02-19T11:34:12;99289.64;;;7.80;47.13
67373;BME280;54257;54.496;18.412;2023-02-19T11:37:26;99288.70;;;7.85;47.99
67373;BME280;54257;54.496;18.412;2023-02-19T11:39:53;99292.41;;;7.64;47.56
67373;BME280;54257;54.496;18.412;2023-02-19T11:42:48;99295.37;;;7.48;48.10
67373;BME280;54257;54.496;18.412;2023-02-19T11:53:26;99311.27;;;6.75;51.86
67373;BME280;54257;54.496;18.412;2023-02-19T11:58:59;99308.21;;;7.09;53.08
67373;BME280;54257;54.496;18.412;2023-02-19T12:13:23;99326.20;;;8.12;46.22
67373;BME280;54257;54.496;18.412;2023-02-19T12:21:53;99341.46;;;7.69;44.60
67373;BME280;54257;54.496;18.412;2023-02-19T12:35:29;99355.45;;;8.01;42.70
67373;BME280;54257;54.496;18.412;2023-02-19T12:43:20;99369.81;;;7.97;39.55
67373;BME280;54257;54.496;18.412;2023-02-19T12:45:57;99375.34;;;8.01;38.83
67373;BME280;54257;54.496;18.412;2023-02-19T12:48:44;99368.03;;;8.00;37.72
67373;BME280;54257;54.496;18.412;2023-02-19T12:51:48;99369.23;;;8.01;38.54
67373;BME280;54257;54.496;18.412;2023-02-19T12:54:43;99373.77;;;7.88;37.48
67373;BME280;54257;54.496;18.412;2023-02-19T12:57:36;99373.38;;;7.76;39.00
67373;BME280;54257;54.496;18.412;2023-02-19T13:00:26;99374.93;;;7.69;39.15
67373;BME280;54257;54.496;18.412;2023-02-19T13:10:58;99379.41;;;7.28;40.72
67373;BME280;54257;54.496;18.412;2023-02-19T13:13:30;99379.09;;;7.28;40.95
67373;BME280;54257;54.496;18.412;2023-02-19T13:16:15;99380.54;;;7.24;41.16
67373;BME280;54257;54.496;18.412;2023-02-19T13:18:53;99378.73;;;7.28;42.35
67373;BME280;54257;54.496;18.412;2023-02-19T13:21:24;99383.54;;;7.39;42.63
67373;BME280;54257;54.496;18.412;2023-02-19T13:24:34;99389.95;;;7.44;41.93
67373;BME280;54257;54.496;18.412;2023-02-19T13:37:50;99396.36;;;7.26;41.75
67373;BME280;54257;54.496;18.412;2023-02-19T13:40:31;99399.14;;;7.21;41.13
67373;BME280;54257;54.496;18.412;2023-02-19T13:43:18;99412.21;;;7.13;41.14
67373;BME280;54257;54.496;18.412;2023-02-19T13:46:07;99424.13;;;7.05;39.99
67373;BME280;54257;54.496;18.412;2023-02-19T13:48:40;99421.42;;;6.91;39.66
67373;BME280;54257;54.496;18.412;2023-02-19T13:59:22;99426.36;;;6.41;42.11
67373;BME280;54257;54.496;18.412;2023-02-19T14:04:20;99427.45;;;6.30;42.62
67373;BME280;54257;54.496;18.412;2023-02-19T14:09:45;99433.64;;;6.20;42.51
67373;BME280;54257;54.496;18.412;2023-02-19T14:14:53;99445.68;;;5.95;42.67
67373;BME280;54257;54.496;18.412;2023-02-19T14:20:00;99452.30;;;5.59;43.85
67373;BME280;54257;54.496;18.412;2023-02-19T14:22:49;99452.46;;;5.46;44.31
67373;BME280;54257;54.496;18.412;2023-02-19T14:25:39;99456.42;;;5.31;44.46
67373;BME280;54257;54.496;18.412;2023-02-19T14:33:20;99458.17;;;4.93;45.51
67373;BME280;54257;54.496;18.412;2023-02-19T14:35:55;99457.34;;;4.84;45.98
67373;BME280;54257;54.496;18.412;2023-02-19T14:38:29;99457.53;;;4.73;45.82
67373;BME280;54257;54.496;18.412;2023-02-19T14:40:58;99456.89;;;4.58;45.89
67373;BME280;54257;54.496;18.412;2023-02-19T14:43:28;99460.48;;;4.48;46.39
67373;BME280;54257;54.496;18.412;2023-02-19T14:45:59;99462.89;;;4.40;47.22
67373;BME280;54257;54.496;18.412;2023-02-19T14:48:31;99466.66;;;4.36;47.90
67373;BME280;54257;54.496;18.412;2023-02-19T14:51:05;99469.81;;;4.30;47.89
67373;BME280;54257;54.496;18.412;2023-02-19T14:53:38;99470.48;;;4.19;46.82
67373;BME280;54257;54.496;18.412;2023-02-19T14:56:19;99475.46;;;4.07;47.49
67373;BME280;54257;54.496;18.412;2023-02-19T14:59:06;99481.85;;;3.96;48.62
67373;BME280;54257;54.496;18.412;2023-02-19T15:01:33;99482.46;;;3.89;49.26
67373;BME280;54257;54.496;18.412;2023-02-19T15:04:01;99483.98;;;3.84;49.67
67373;BME280;54257;54.496;18.412;2023-02-19T15:06:28;99495.30;;;3.75;50.08
67373;BME280;54257;54.496;18.412;2023-02-19T15:09:01;99497.86;;;3.67;50.81
67373;BME280;54257;54.496;18.412;2023-02-19T15:11:31;99498.98;;;3.60;51.08
67373;BME280;54257;54.496;18.412;2023-02-19T15:14:07;99495.73;;;3.55;51.16
67373;BME280;54257;54.496;18.412;2023-02-19T15:16:40;99501.74;;;3.48;51.53
67373;BME280;54257;54.496;18.412;2023-02-19T15:19:08;99504.96;;;3.44;51.96
67373;BME280;54257;54.496;18.412;2023-02-19T15:21:38;99506.36;;;3.41;52.65
67373;BME280;54257;54.496;18.412;2023-02-19T15:24:13;99512.86;;;3.39;53.25
67373;BME280;54257;54.496;18.412;2023-02-19T15:26:43;99515.56;;;3.34;54.01
67373;BME280;54257;54.496;18.412;2023-02-19T15:29:15;99522.10;;;3.28;54.18
67373;BME280;54257;54.496;18.412;2023-02-19T15:34:16;99523.08;;;3.19;54.85